createdAt,value
2023-02-01T00:02:06.043Z,98926.40
2023-02-01T00:05:03.507Z,98928.00
2023-02-01T00:08:01.139Z,98941.40
2023-02-01T00:10:58.773Z,98928.20
2023-02-01T00:13:56.233Z,98917.80
2023-02-01T00:16:53.950Z,98928.00
2023-02-01T00:19:51.380Z,98922.60
2023-02-01T00:22:49.077Z,98913.40
2023-02-01T00:25:46.545Z,98910.00
2023-02-01T00:28:44.301Z,98914.60
2023-02-01T00:31:42.115Z,98910.40
2023-02-01T00:34:39.572Z,98899.80
2023-02-01T00:37:37.320Z,98896.40
2023-02-01T00:40:34.752Z,98912.40
2023-02-01T00:43:32.552Z,98903.40
2023-02-01T00:46:30.032Z,98911.60
2023-02-01T00:49:27.952Z,98915.80
2023-02-01T00:52:25.426Z,98911.80
2023-02-01T00:55:23.172Z,98910.80
2023-02-01T00:58:20.951Z,98906.00
2023-02-01T01:01:18.419Z,98915.80
2023-02-01T01:04:16.169Z,98920.60
2023-02-01T01:07:13.611Z,98927.60
2023-02-01T01:10:11.297Z,98928.40
2023-02-01T01:13:08.715Z,98929.40
2023-02-01T01:16:06.450Z,98926.80
2023-02-01T01:19:03.928Z,98944.60
2023-02-01T01:22:01.653Z,98937.40
2023-02-01T01:24:59.333Z,98939.20
2023-02-01T01:27:56.790Z,98947.00
2023-02-01T01:30:54.548Z,98949.00
2023-02-01T01:33:52.007Z,98949.40
2023-02-01T01:36:49.783Z,98934.80
2023-02-01T01:39:47.545Z,98933.00
2023-02-01T01:42:44.986Z,98933.40
2023-02-01T01:45:42.770Z,98933.20
2023-02-01T01:48:40.207Z,98921.40
2023-02-01T01:51:38.609Z,98923.60
2023-02-01T01:54:36.050Z,98932.20
2023-02-01T01:57:33.835Z,98932.20
2023-02-01T02:00:31.580Z,98918.40
2023-02-01T02:03:29.064Z,98929.80
2023-02-01T02:06:26.837Z,98917.60
2023-02-01T02:09:24.252Z,98923.80
2023-02-01T02:12:21.840Z,98926.40
2023-02-01T02:15:19.629Z,98916.40
2023-02-01T02:18:17.072Z,98929.80
2023-02-01T02:21:14.815Z,98928.40
2023-02-01T02:24:12.274Z,98926.00
2023-02-01T02:27:24.205Z,98917.80
2023-02-01T02:30:21.918Z,98904.00
2023-02-01T02:33:19.941Z,98913.40
2023-02-01T02:36:17.707Z,98916.40
2023-02-01T02:39:15.133Z,98922.40
2023-02-01T02:42:30.865Z,98917.00
2023-02-01T02:45:51.161Z,98926.00
2023-02-01T02:48:48.925Z,98930.00
2023-02-01T02:52:04.100Z,98921.80
2023-02-01T02:55:01.545Z,98920.20
2023-02-01T02:58:17.048Z,98938.80
2023-02-01T03:01:32.524Z,98925.40
2023-02-01T03:04:29.998Z,98931.00
2023-02-01T03:07:27.694Z,98928.20
2023-02-01T03:10:25.236Z,98921.80
2023-02-01T03:13:23.070Z,98918.40
2023-02-01T03:16:22.651Z,98924.80
2023-02-01T03:19:20.349Z,98925.20
2023-02-01T03:22:18.095Z,98931.80
2023-02-01T03:25:15.897Z,98944.80
2023-02-01T03:28:13.605Z,98946.20
2023-02-01T03:31:11.088Z,98955.60
2023-02-01T03:34:08.873Z,98957.40
2023-02-01T03:37:06.315Z,98959.40
2023-02-01T03:40:04.116Z,98958.40
2023-02-01T03:43:01.586Z,98958.60
2023-02-01T03:45:59.379Z,98954.80
2023-02-01T03:48:57.211Z,98959.60
2023-02-01T03:51:54.738Z,98952.40
2023-02-01T03:54:52.541Z,98961.00
2023-02-01T03:57:49.986Z,98961.40
2023-02-01T04:00:47.675Z,98947.40
2023-02-01T04:03:45.421Z,98959.80
2023-02-01T04:06:42.855Z,98947.00
2023-02-01T04:09:40.559Z,98960.20
2023-02-01T04:12:37.990Z,98961.80
2023-02-01T04:15:35.964Z,98963.40
2023-02-01T04:18:33.379Z,98963.00
2023-02-01T04:21:31.097Z,98949.60
2023-02-01T04:24:28.868Z,98957.20
2023-02-01T04:27:26.300Z,98949.00
2023-02-01T04:30:25.542Z,98946.40
2023-02-01T04:33:23.181Z,98952.40
2023-02-01T04:36:23.147Z,98948.40
2023-02-01T04:39:20.578Z,98937.60
2023-02-01T04:42:18.349Z,98928.60
2023-02-01T04:45:15.778Z,98920.20
2023-02-01T04:48:13.567Z,98928.40
2023-02-01T04:51:11.646Z,98924.80
2023-02-01T04:54:09.072Z,98910.00
2023-02-01T04:57:06.741Z,98910.80
2023-02-01T05:00:04.334Z,98915.40
2023-02-01T05:03:02.090Z,98922.60
2023-02-01T05:06:00.394Z,98916.40
2023-02-01T05:08:58.135Z,98915.40
2023-02-01T05:12:13.768Z,98914.40
2023-02-01T05:15:11.190Z,98914.20
2023-02-01T05:18:08.960Z,98911.40
2023-02-01T05:21:06.401Z,98911.40
2023-02-01T05:24:14.315Z,98921.00
2023-02-01T05:27:11.761Z,98924.20
2023-02-01T05:30:09.648Z,98926.60
2023-02-01T05:33:07.320Z,98938.60
2023-02-01T05:36:06.824Z,98932.60
2023-02-01T05:39:04.741Z,98925.60
2023-02-01T05:42:02.177Z,98924.40
2023-02-01T05:44:59.837Z,98924.80
2023-02-01T05:47:57.279Z,98905.40
2023-02-01T05:50:55.048Z,98910.00
2023-02-01T05:53:52.784Z,98906.40
2023-02-01T05:56:50.227Z,98907.80
2023-02-01T05:59:48.847Z,98907.60
2023-02-01T06:02:46.327Z,98903.00
2023-02-01T06:05:44.084Z,98884.80
2023-02-01T06:08:42.118Z,98893.80
2023-02-01T06:11:39.908Z,98896.60
2023-02-01T06:14:38.173Z,98898.00
2023-02-01T06:17:35.890Z,98899.20
2023-02-01T06:20:33.320Z,98902.60
2023-02-01T06:23:31.089Z,98909.60
2023-02-01T06:26:30.641Z,98913.20
2023-02-01T06:29:28.779Z,98915.80
2023-02-01T06:32:26.540Z,98917.40
2023-02-01T06:35:23.993Z,98934.20
2023-02-01T06:38:21.895Z,98938.40
2023-02-01T06:41:21.607Z,98930.20
2023-02-01T06:44:19.199Z,98926.60
2023-02-01T06:47:16.627Z,98918.80
2023-02-01T06:50:14.362Z,98919.40
2023-02-01T06:53:12.035Z,98923.60
2023-02-01T06:56:09.460Z,98924.60
2023-02-01T06:59:07.172Z,98935.60
2023-02-01T07:02:04.660Z,98927.80
2023-02-01T07:05:02.604Z,98913.80
2023-02-01T07:08:00.036Z,98923.80
2023-02-01T07:10:57.872Z,98919.40
2023-02-01T07:13:55.317Z,98907.20
2023-02-01T07:16:53.223Z,98912.40
2023-02-01T07:19:50.911Z,98922.00
2023-02-01T07:22:48.343Z,98924.60
2023-02-01T07:25:46.112Z,98917.20
2023-02-01T07:28:43.533Z,98921.80
2023-02-01T07:31:41.293Z,98923.00
2023-02-01T07:34:38.728Z,98930.80
2023-02-01T07:37:36.493Z,98936.80
2023-02-01T07:40:34.013Z,98939.60
2023-02-01T07:43:31.833Z,98943.80
2023-02-01T07:46:29.285Z,98935.80
2023-02-01T07:49:27.005Z,98925.80
2023-02-01T07:52:24.457Z,98927.80
2023-02-01T07:55:22.092Z,98933.60
2023-02-01T07:58:19.530Z,98926.60
2023-02-01T08:01:24.235Z,98929.00
2023-02-01T08:04:22.174Z,98923.20
2023-02-01T08:07:19.629Z,98933.80
2023-02-01T08:10:17.300Z,98933.80
2023-02-01T08:13:14.784Z,98926.80
2023-02-01T08:16:12.707Z,98914.00
2023-02-01T08:19:10.169Z,98902.40
2023-02-01T08:22:08.632Z,98911.40
2023-02-01T08:25:06.079Z,98888.60
2023-02-01T08:28:03.856Z,98884.20
2023-02-01T08:34:17.003Z,98879.40
2023-02-01T08:37:14.871Z,98871.00
2023-02-01T08:40:12.357Z,98863.20
2023-02-01T08:43:10.274Z,98849.20
2023-02-01T08:46:07.748Z,98855.20
2023-02-01T08:49:05.739Z,98849.60
2023-02-01T08:52:07.184Z,98854.40
2023-02-01T08:55:10.267Z,98863.00
2023-02-01T08:58:07.691Z,98863.60
2023-02-01T09:01:05.737Z,98870.80
2023-02-01T09:04:03.220Z,98870.20
2023-02-01T09:07:01.160Z,98878.20
2023-02-01T09:10:01.964Z,98880.60
2023-02-01T09:13:01.918Z,98883.40
2023-02-01T09:16:00.846Z,98883.40
2023-02-01T09:19:22.129Z,98887.00
2023-02-01T09:22:16.598Z,98868.80
2023-02-01T09:25:14.516Z,98879.00
2023-02-01T09:28:11.986Z,98873.20
2023-02-01T09:31:10.783Z,98877.80
2023-02-01T09:34:08.280Z,98863.40
2023-02-01T09:37:06.231Z,98860.80
2023-02-01T09:40:05.298Z,98859.60
2023-02-01T09:43:03.233Z,98863.60
2023-02-01T09:46:00.700Z,98847.60
2023-02-01T09:48:59.788Z,98859.80
2023-02-01T09:51:57.223Z,98842.80
2023-02-01T09:54:55.409Z,98833.00
2023-02-01T09:57:52.892Z,98836.00
2023-02-01T10:00:50.754Z,98834.40
2023-02-01T10:03:48.201Z,98833.40
2023-02-01T10:06:46.103Z,98822.40
2023-02-01T10:09:43.532Z,98822.20
2023-02-01T10:12:41.389Z,98808.60
2023-02-01T10:15:38.919Z,98807.20
2023-02-01T10:18:36.945Z,98802.60
2023-02-01T10:21:40.004Z,98796.80
2023-02-01T10:24:38.013Z,98804.00
2023-02-01T10:27:35.446Z,98783.40
2023-02-01T10:30:35.400Z,98795.80
2023-02-01T10:33:33.120Z,98782.60
2023-02-01T10:36:31.517Z,98787.20
2023-02-01T10:39:28.964Z,98777.20
2023-02-01T10:42:26.880Z,98792.60
2023-02-01T10:45:24.349Z,98782.40
2023-02-01T10:48:22.206Z,98772.20
2023-02-01T10:51:19.651Z,98790.40
2023-02-01T10:54:17.734Z,98785.00
2023-02-01T10:57:15.151Z,98785.20
2023-02-01T11:00:13.161Z,98781.40
2023-02-01T11:03:10.616Z,98786.40
2023-02-01T11:06:08.446Z,98791.60
2023-02-01T11:09:06.102Z,98791.60
2023-02-01T11:12:04.207Z,98790.60
2023-02-01T11:15:01.657Z,98796.20
2023-02-01T11:18:00.793Z,98794.00
2023-02-01T11:20:58.226Z,98799.60
2023-02-01T11:23:56.135Z,98800.40
2023-02-01T11:26:54.060Z,98788.00
2023-02-01T11:29:52.079Z,98788.20
2023-02-01T11:32:49.519Z,98807.20
2023-02-01T11:35:47.436Z,98806.80
2023-02-01T11:38:44.868Z,98804.80
2023-02-01T11:41:42.740Z,98809.80
2023-02-01T11:44:40.183Z,98805.80
2023-02-01T11:47:38.045Z,98809.00
2023-02-01T11:50:35.507Z,98810.40
2023-02-01T11:53:33.513Z,98819.60
2023-02-01T11:56:31.472Z,98803.40
2023-02-01T11:59:31.376Z,98800.80
2023-02-01T12:02:28.843Z,98789.00
2023-02-01T12:05:27.538Z,98797.00
2023-02-01T12:08:24.993Z,98784.20
2023-02-01T12:11:22.964Z,98791.60
2023-02-01T12:14:20.437Z,98784.60
2023-02-01T12:17:18.314Z,98790.60
2023-02-01T12:20:15.776Z,98778.60
2023-02-01T12:23:13.603Z,98791.60
2023-02-01T12:26:11.529Z,98795.60
2023-02-01T12:29:09.609Z,98799.20
2023-02-01T12:32:07.437Z,98799.20
2023-02-01T12:35:04.898Z,98795.00
2023-02-01T12:38:02.695Z,98789.60
2023-02-01T12:41:00.180Z,98794.60
2023-02-01T12:43:58.175Z,98793.20
2023-02-01T12:46:55.605Z,98777.40
2023-02-01T12:49:53.432Z,98765.80
2023-02-01T12:52:51.383Z,98767.80
2023-02-01T12:55:51.782Z,98776.40
2023-02-01T12:58:49.662Z,98775.40
2023-02-01T13:01:48.373Z,98780.40
2023-02-01T13:04:46.452Z,98773.20
2023-02-01T13:07:43.915Z,98763.60
2023-02-01T13:10:43.027Z,98751.20
2023-02-01T13:13:41.167Z,98752.20
2023-02-01T13:16:38.617Z,98734.20
2023-02-01T13:19:36.612Z,98733.40
2023-02-01T13:22:34.080Z,98737.00
2023-02-01T13:25:31.931Z,98730.20
2023-02-01T13:28:29.690Z,98727.40
2023-02-01T13:31:27.774Z,98729.00
2023-02-01T13:34:25.288Z,98726.60
2023-02-01T13:37:23.205Z,98716.60
2023-02-01T13:40:20.650Z,98713.40
2023-02-01T13:43:18.554Z,98716.20
2023-02-01T13:46:17.207Z,98711.20
2023-02-01T13:49:15.106Z,98719.00
2023-02-01T13:52:12.546Z,98708.80
2023-02-01T13:55:10.419Z,98713.20
2023-02-01T13:58:07.846Z,98711.40
2023-02-01T14:01:05.667Z,98703.20
2023-02-01T14:04:03.559Z,98702.20
2023-02-01T14:07:01.448Z,98713.80
2023-02-01T14:09:58.900Z,98720.20
2023-02-01T14:12:56.777Z,98722.00
2023-02-01T14:15:54.380Z,98727.80
2023-02-01T14:18:52.577Z,98728.80
2023-02-01T14:21:50.426Z,98722.80
2023-02-01T14:24:47.852Z,98723.60
2023-02-01T14:27:45.777Z,98719.40
2023-02-01T14:30:43.293Z,98720.00
2023-02-01T14:33:41.310Z,98715.00
2023-02-01T14:36:43.445Z,98714.60
2023-02-01T14:39:41.555Z,98719.00
2023-02-01T14:42:39.426Z,98722.40
2023-02-01T14:45:37.510Z,98726.80
2023-02-01T14:48:35.044Z,98729.60
2023-02-01T14:51:33.139Z,98730.80
2023-02-01T14:54:30.595Z,98734.40
2023-02-01T14:57:28.607Z,98739.40
2023-02-01T15:00:26.076Z,98748.60
2023-02-01T15:03:23.934Z,98745.60
2023-02-01T15:06:21.391Z,98749.80
2023-02-01T15:09:19.207Z,98758.00
2023-02-01T15:12:16.825Z,98765.40
2023-02-01T15:15:14.853Z,98769.40
2023-02-01T15:18:12.288Z,98759.80
2023-02-01T15:21:28.242Z,98765.00
2023-02-01T15:24:27.675Z,98762.00
2023-02-01T15:27:25.587Z,98765.20
2023-02-01T15:30:23.854Z,98761.20
2023-02-01T15:33:21.966Z,98754.00
2023-02-01T15:36:19.455Z,98767.80
2023-02-01T15:39:19.944Z,98762.40
2023-02-01T15:42:19.781Z,98769.40
2023-02-01T15:45:17.725Z,98761.80
2023-02-01T15:48:15.180Z,98762.00
2023-02-01T15:51:13.062Z,98774.60
2023-02-01T15:54:10.731Z,98775.60
2023-02-01T15:57:09.910Z,98784.60
2023-02-01T16:00:08.582Z,98790.60
2023-02-01T16:03:06.641Z,98795.40
2023-02-01T16:06:04.280Z,98800.80
2023-02-01T16:09:02.300Z,98806.60
2023-02-01T16:11:59.762Z,98815.00
2023-02-01T16:14:57.647Z,98811.60
2023-02-01T16:17:55.513Z,98817.20
2023-02-01T16:20:52.961Z,98824.40
2023-02-01T16:23:51.043Z,98835.80
2023-02-01T16:26:48.612Z,98830.00
2023-02-01T16:29:46.573Z,98826.40
2023-02-01T16:32:44.685Z,98826.00
2023-02-01T16:35:42.682Z,98821.80
2023-02-01T16:38:40.234Z,98822.00
2023-02-01T16:41:38.457Z,98819.80
2023-02-01T16:44:36.644Z,98822.40
2023-02-01T16:47:37.165Z,98825.40
2023-02-01T16:50:35.062Z,98825.00
2023-02-01T16:53:41.674Z,98814.20
2023-02-01T16:56:46.330Z,98820.80
2023-02-01T16:59:45.588Z,98823.00
2023-02-01T17:02:43.097Z,98826.60
2023-02-01T17:05:41.295Z,98813.60
2023-02-01T17:08:39.209Z,98819.20
2023-02-01T17:11:38.885Z,98816.20
2023-02-01T17:14:38.454Z,98825.40
2023-02-01T17:17:38.769Z,98837.80
2023-02-01T17:20:38.603Z,98831.60
2023-02-01T17:23:37.149Z,98832.00
2023-02-01T17:26:36.846Z,98836.80
2023-02-01T17:29:36.248Z,98841.40
2023-02-01T17:32:34.419Z,98821.40
2023-02-01T17:35:33.830Z,98819.80
2023-02-01T17:38:32.132Z,98814.60
2023-02-01T17:41:30.570Z,98808.40
2023-02-01T17:44:28.610Z,98811.60
2023-02-01T17:47:27.445Z,98808.00
2023-02-01T17:50:29.622Z,98799.40
2023-02-01T17:53:27.815Z,98801.20
2023-02-01T17:56:27.461Z,98807.20
2023-02-01T17:59:25.589Z,98805.40
2023-02-01T18:02:23.789Z,98809.00
2023-02-01T18:05:22.370Z,98821.40
2023-02-01T18:08:22.370Z,98808.60
2023-02-01T18:11:20.538Z,98799.40
2023-02-01T18:14:18.692Z,98790.80
2023-02-01T18:17:17.300Z,98789.00
2023-02-01T18:20:16.447Z,98784.80
2023-02-01T18:23:16.407Z,98786.00
2023-02-01T18:26:15.126Z,98764.00
2023-02-01T18:29:13.981Z,98760.00
2023-02-01T18:32:12.059Z,98767.40
2023-02-01T18:35:13.704Z,98764.40
2023-02-01T18:38:12.471Z,98772.40
2023-02-01T18:41:11.128Z,98762.40
2023-02-01T18:44:09.853Z,98759.40
2023-02-01T18:47:09.464Z,98764.80
2023-02-01T18:50:08.888Z,98766.20
2023-02-01T18:53:08.010Z,98773.40
2023-02-01T18:56:07.341Z,98775.40
2023-02-01T18:59:06.318Z,98773.40
2023-02-01T19:02:05.581Z,98774.20
2023-02-01T19:05:04.935Z,98772.20
2023-02-01T19:08:12.409Z,98773.20
2023-02-01T19:11:12.867Z,98769.40
2023-02-01T19:14:12.687Z,98761.60
2023-02-01T19:17:11.136Z,98767.20
2023-02-01T19:20:10.551Z,98769.60
2023-02-01T19:23:10.657Z,98758.60
2023-02-01T19:26:09.967Z,98763.00
2023-02-01T19:29:09.671Z,98742.40
2023-02-01T19:32:09.866Z,98744.60
2023-02-01T19:35:09.310Z,98742.40
2023-02-01T19:38:08.509Z,98726.40
2023-02-01T19:41:07.470Z,98715.20
2023-02-01T19:44:06.916Z,98709.40
2023-02-01T19:47:05.078Z,98712.20
2023-02-01T19:50:06.932Z,98708.40
2023-02-01T19:53:04.922Z,98709.00
2023-02-01T19:56:03.557Z,98713.20
2023-02-01T19:59:03.326Z,98713.20
2023-02-01T20:02:01.658Z,98727.20
2023-02-01T20:04:59.267Z,98724.20
2023-02-01T20:07:57.609Z,98727.00
2023-02-01T20:10:58.360Z,98730.20
2023-02-01T20:13:57.344Z,98737.40
2023-02-01T20:16:57.462Z,98748.80
2023-02-01T20:19:56.567Z,98733.40
2023-02-01T20:22:55.770Z,98736.80
2023-02-01T20:25:56.393Z,98737.20
2023-02-01T20:28:56.646Z,98738.20
2023-02-01T20:31:54.851Z,98714.80
2023-02-01T20:34:54.979Z,98711.80
2023-02-01T20:37:53.769Z,98721.60
2023-02-01T20:40:52.944Z,98722.60
2023-02-01T20:43:52.557Z,98720.00
2023-02-01T20:46:51.368Z,98711.60
2023-02-01T20:49:50.271Z,98709.80
2023-02-01T20:52:47.798Z,98713.00
2023-02-01T20:55:46.558Z,98710.60
2023-02-01T20:58:44.674Z,98702.60
2023-02-01T21:01:53.911Z,98691.40
2023-02-01T21:04:53.263Z,98696.00
2023-02-01T21:07:51.402Z,98688.80
2023-02-01T21:10:49.180Z,98680.40
2023-02-01T21:13:54.024Z,98690.40
2023-02-01T21:16:52.407Z,98679.40
2023-02-01T21:19:50.257Z,98681.60
2023-02-01T21:22:48.141Z,98684.80
2023-02-01T21:25:45.586Z,98670.00
2023-02-01T21:28:43.787Z,98661.00
2023-02-01T21:31:41.457Z,98671.60
2023-02-01T21:34:39.058Z,98669.00
2023-02-01T21:37:38.663Z,98659.40
2023-02-01T21:40:36.129Z,98687.80
2023-02-01T21:43:33.837Z,98676.20
2023-02-01T21:46:31.282Z,98673.00
2023-02-01T21:49:29.476Z,98672.00
2023-02-01T21:52:28.030Z,98660.20
2023-02-01T21:55:25.819Z,98643.80
2023-02-01T21:58:23.807Z,98662.60
2023-02-01T22:01:21.361Z,98655.40
2023-02-01T22:04:19.137Z,98646.40
2023-02-01T22:07:16.714Z,98636.80
2023-02-01T22:10:14.449Z,98650.20
2023-02-01T22:13:12.228Z,98660.40
2023-02-01T22:16:09.764Z,98651.40
2023-02-01T22:19:07.551Z,98643.20
2023-02-01T22:22:04.982Z,98632.40
2023-02-01T22:25:03.121Z,98646.40
2023-02-01T22:28:31.917Z,98630.80
2023-02-01T22:31:18.396Z,98631.40
2023-02-01T22:34:16.250Z,98624.40
2023-02-01T22:37:13.676Z,98625.40
2023-02-01T22:40:11.502Z,98625.60
2023-02-01T22:43:08.935Z,98620.40
2023-02-01T22:46:06.723Z,98619.80
2023-02-01T22:49:04.177Z,98623.80
2023-02-01T22:52:02.141Z,98619.80
2023-02-01T22:54:59.589Z,98653.40
2023-02-01T22:57:57.355Z,98641.40
2023-02-01T23:00:55.232Z,98650.40
2023-02-01T23:03:52.677Z,98664.40
2023-02-01T23:06:50.450Z,98647.20
2023-02-01T23:09:48.044Z,98654.60
2023-02-01T23:12:45.814Z,98669.20
2023-02-01T23:15:43.321Z,98674.80
2023-02-01T23:18:41.026Z,98665.20
2023-02-01T23:21:38.480Z,98650.40
2023-02-01T23:24:36.244Z,98655.60
2023-02-01T23:27:33.682Z,98652.40
2023-02-01T23:30:31.457Z,98667.40
2023-02-01T23:33:29.084Z,98665.00
2023-02-01T23:36:26.560Z,98664.20
2023-02-01T23:39:24.325Z,98667.60
2023-02-01T23:42:21.757Z,98684.00
2023-02-01T23:45:19.565Z,98692.00
2023-02-01T23:48:17.008Z,98702.40
2023-02-01T23:51:14.801Z,98696.20
2023-02-01T23:54:12.569Z,98698.00
2023-02-01T23:57:10.018Z,98704.00
